sensor_id;sensor_type;location;lat;lon;timestamp;pressure;altitude;pressure_sealevel;temperature;humidity
40596;BME280;26304;48.794;9.820;2023-10-31T00:01:46;94808.22;;;18.13;62.72
40596;BME280;26304;48.794;9.820;2023-10-31T00:04:11;94809.69;;;18.14;62.93
40596;BME280;26304;48.794;9.820;2023-10-31T00:06:33;94814.94;;;18.14;62.91
40596;BME280;26304;48.794;9.820;2023-10-31T00:08:56;94804.03;;;18.15;63.04
40596;BME280;26304;48.794;9.820;2023-10-31T00:11:18;94805.19;;;18.14;63.13
40596;BME280;26304;48.794;9.820;2023-10-31T00:13:42;94806.66;;;18.15;63.00
40596;BME280;26304;48.794;9.820;2023-10-31T00:16:04;94812.66;;;18.16;63.00
40596;BME280;26304;48.794;9.820;2023-10-31T00:18:27;94816.44;;;18.15;62.99
40596;BME280;26304;48.794;9.820;2023-10-31T00:20:51;94818.66;;;18.17;62.86
40596;BME280;26304;48.794;9.820;2023-10-31T00:23:14;94822.78;;;18.18;62.86
40596;BME280;26304;48.794;9.820;2023-10-31T00:25:37;94819.00;;;18.19;62.82
40596;BME280;26304;48.794;9.820;2023-10-31T00:27:59;94816.03;;;18.17;62.70
40596;BME280;26304;48.794;9.820;2023-10-31T00:30:22;94814.53;;;18.15;63.01
40596;BME280;26304;48.794;9.820;2023-10-31T00:32:44;94809.69;;;18.14;63.04
40596;BME280;26304;48.794;9.820;2023-10-31T00:35:07;94808.53;;;18.15;62.81
40596;BME280;26304;48.794;9.820;2023-10-31T00:37:31;94802.19;;;18.12;62.72
40596;BME280;26304;48.794;9.820;2023-10-31T00:39:53;94807.47;;;18.12;62.64
40596;BME280;26304;48.794;9.820;2023-10-31T00:42:16;94817.97;;;18.12;62.47
40596;BME280;26304;48.794;9.820;2023-10-31T00:44:38;94819.13;;;18.11;62.57
40596;BME280;26304;48.794;9.820;2023-10-31T00:47:01;94824.41;;;18.11;62.97
40596;BME280;26304;48.794;9.820;2023-10-31T00:49:24;94820.28;;;18.10;62.54
40596;BME280;26304;48.794;9.820;2023-10-31T00:51:46;94816.50;;;18.11;62.97
40596;BME280;26304;48.794;9.820;2023-10-31T00:54:10;94824.06;;;18.09;62.92
40596;BME280;26304;48.794;9.820;2023-10-31T00:56:32;94830.78;;;18.10;62.80
40596;BME280;26304;48.794;9.820;2023-10-31T00:58:55;94832.69;;;18.10;62.48
40596;BME280;26304;48.794;9.820;2023-10-31T01:01:17;94830.38;;;18.12;62.43
40596;BME280;26304;48.794;9.820;2023-10-31T01:03:40;94821.84;;;18.08;62.79
40596;BME280;26304;48.794;9.820;2023-10-31T01:06:03;94833.16;;;18.05;63.07
40596;BME280;26304;48.794;9.820;2023-10-31T01:08:25;94823.38;;;18.05;62.97
40596;BME280;26304;48.794;9.820;2023-10-31T01:10:49;94824.88;;;18.06;62.62
40596;BME280;26304;48.794;9.820;2023-10-31T01:13:11;94833.16;;;18.05;63.01
40596;BME280;26304;48.794;9.820;2023-10-31T01:15:34;94835.44;;;18.03;62.97
40596;BME280;26304;48.794;9.820;2023-10-31T01:17:56;94834.31;;;18.04;62.84
40596;BME280;26304;48.794;9.820;2023-10-31T01:20:19;94831.66;;;18.04;62.53
40596;BME280;26304;48.794;9.820;2023-10-31T01:22:41;94832.41;;;18.04;62.44
40596;BME280;26304;48.794;9.820;2023-10-31T01:25:04;94840.69;;;18.03;62.53
40596;BME280;26304;48.794;9.820;2023-10-31T01:27:28;94832.06;;;18.02;62.60
40596;BME280;26304;48.794;9.820;2023-10-31T01:29:50;94842.59;;;18.02;62.69
40596;BME280;26304;48.794;9.820;2023-10-31T01:32:13;94850.47;;;18.02;62.77
40596;BME280;26304;48.794;9.820;2023-10-31T01:34:36;94854.25;;;18.01;62.90
40596;BME280;26304;48.794;9.820;2023-10-31T01:36:58;94853.09;;;18.02;62.55
40596;BME280;26304;48.794;9.820;2023-10-31T01:39:19;94862.91;;;18.02;62.47
40596;BME280;26304;48.794;9.820;2023-10-31T01:41:42;94855.00;;;18.02;62.67
40596;BME280;26304;48.794;9.820;2023-10-31T01:44:05;94868.16;;;18.02;62.71
40596;BME280;26304;48.794;9.820;2023-10-31T01:46:28;94873.81;;;18.00;62.64
40596;BME280;26304;48.794;9.820;2023-10-31T01:48:50;94875.28;;;18.01;62.69
40596;BME280;26304;48.794;9.820;2023-10-31T01:51:13;94885.47;;;17.99;62.62
40596;BME280;26304;48.794;9.820;2023-10-31T01:53:36;94889.91;;;18.02;62.59
40596;BME280;26304;48.794;9.820;2023-10-31T01:55:59;94901.53;;;18.05;62.30
40596;BME280;26304;48.794;9.820;2023-10-31T01:58:26;94901.56;;;18.01;62.56
40596;BME280;26304;48.794;9.820;2023-10-31T02:00:53;94902.72;;;18.00;62.39
40596;BME280;26304;48.794;9.820;2023-10-31T02:03:17;94908.31;;;18.02;62.53
40596;BME280;26304;48.794;9.820;2023-10-31T02:05:39;94916.94;;;18.03;62.45
40596;BME280;26304;48.794;9.820;2023-10-31T02:08:02;94930.09;;;18.03;62.16
40596;BME280;26304;48.794;9.820;2023-10-31T02:10:24;94927.88;;;18.01;62.15
40596;BME280;26304;48.794;9.820;2023-10-31T02:12:47;94932.41;;;18.01;62.60
40596;BME280;26304;48.794;9.820;2023-10-31T02:15:09;94927.88;;;18.01;62.36
40596;BME280;26304;48.794;9.820;2023-10-31T02:17:35;94931.66;;;18.00;62.36
40596;BME280;26304;48.794;9.820;2023-10-31T02:19:57;94949.66;;;18.02;62.49
40596;BME280;26304;48.794;9.820;2023-10-31T02:22:21;94954.91;;;18.02;62.33
40596;BME280;26304;48.794;9.820;2023-10-31T02:24:44;94957.16;;;18.03;62.23
40596;BME280;26304;48.794;9.820;2023-10-31T02:27:06;94964.28;;;18.03;62.45
40596;BME280;26304;48.794;9.820;2023-10-31T02:29:28;94960.91;;;18.02;62.12
40596;BME280;26304;48.794;9.820;2023-10-31T02:31:51;94970.31;;;18.03;62.79
40596;BME280;26304;48.794;9.820;2023-10-31T02:34:14;94968.81;;;18.02;62.42
40596;BME280;26304;48.794;9.820;2023-10-31T02:36:36;94960.59;;;18.00;62.50
40596;BME280;26304;48.794;9.820;2023-10-31T02:39:00;94951.19;;;17.99;62.19
40596;BME280;26304;48.794;9.820;2023-10-31T02:41:22;94948.56;;;17.99;62.57
40596;BME280;26304;48.794;9.820;2023-10-31T02:43:45;94950.47;;;17.99;62.27
40596;BME280;26304;48.794;9.820;2023-10-31T02:46:08;94956.44;;;17.99;62.71
40596;BME280;26304;48.794;9.820;2023-10-31T02:48:31;94945.22;;;17.99;62.49
40596;BME280;26304;48.794;9.820;2023-10-31T02:50:59;94948.22;;;17.97;62.65
40596;BME280;26304;48.794;9.820;2023-10-31T02:53:21;94941.81;;;17.98;62.35
40596;BME280;26304;48.794;9.820;2023-10-31T02:55:45;94939.19;;;17.98;62.41
40596;BME280;26304;48.794;9.820;2023-10-31T02:58:07;94939.59;;;17.96;62.67
40596;BME280;26304;48.794;9.820;2023-10-31T03:00:30;94940.34;;;17.97;62.35
40596;BME280;26304;48.794;9.820;2023-10-31T03:02:52;94932.13;;;17.95;62.56
40596;BME280;26304;48.794;9.820;2023-10-31T03:05:16;94935.88;;;17.94;62.47
40596;BME280;26304;48.794;9.820;2023-10-31T03:07:39;94942.63;;;17.95;62.26
40596;BME280;26304;48.794;9.820;2023-10-31T03:10:01;94941.16;;;17.94;62.35
40596;BME280;26304;48.794;9.820;2023-10-31T03:12:25;94947.91;;;17.95;62.71
40596;BME280;26304;48.794;9.820;2023-10-31T03:14:47;94961.03;;;17.95;62.27
40596;BME280;26304;48.794;9.820;2023-10-31T03:17:10;94953.56;;;17.93;62.61
40596;BME280;26304;48.794;9.820;2023-10-31T03:19:32;94953.56;;;17.93;62.20
40596;BME280;26304;48.794;9.820;2023-10-31T03:21:55;94955.78;;;17.95;62.31
40596;BME280;26304;48.794;9.820;2023-10-31T03:24:17;94952.78;;;17.93;62.37
40596;BME280;26304;48.794;9.820;2023-10-31T03:26:39;94952.78;;;17.93;62.53
40596;BME280;26304;48.794;9.820;2023-10-31T03:29:03;94956.19;;;17.93;62.57
40596;BME280;26304;48.794;9.820;2023-10-31T03:31:25;94963.31;;;17.93;62.40
40596;BME280;26304;48.794;9.820;2023-10-31T03:33:48;94968.56;;;17.93;62.29
40596;BME280;26304;48.794;9.820;2023-10-31T03:36:10;94970.47;;;17.92;62.35
40596;BME280;26304;48.794;9.820;2023-10-31T03:38:32;94980.97;;;17.92;62.29
40596;BME280;26304;48.794;9.820;2023-10-31T03:40:55;94979.47;;;17.91;62.28
40596;BME280;26304;48.794;9.820;2023-10-31T03:43:17;94974.22;;;17.91;62.02
40596;BME280;26304;48.794;9.820;2023-10-31T03:45:41;94978.00;;;17.90;62.17
40596;BME280;26304;48.794;9.820;2023-10-31T03:48:04;94989.25;;;17.91;62.48
40596;BME280;26304;48.794;9.820;2023-10-31T03:50:27;94982.13;;;17.91;61.92
40596;BME280;26304;48.794;9.820;2023-10-31T03:52:49;94981.38;;;17.91;62.00
40596;BME280;26304;48.794;9.820;2023-10-31T03:55:11;94988.94;;;17.89;62.08
40596;BME280;26304;48.794;9.820;2023-10-31T03:57:35;94986.66;;;17.87;62.10
40596;BME280;26304;48.794;9.820;2023-10-31T03:59:58;94998.72;;;17.85;62.14
40596;BME280;26304;48.794;9.820;2023-10-31T04:02:22;94994.94;;;17.86;62.18
40596;BME280;26304;48.794;9.820;2023-10-31T04:04:44;94996.81;;;17.85;62.27
40596;BME280;26304;48.794;9.820;2023-10-31T04:07:06;94997.97;;;17.84;61.94
40596;BME280;26304;48.794;9.820;2023-10-31T04:09:29;94996.09;;;17.85;61.86
40596;BME280;26304;48.794;9.820;2023-10-31T04:11:51;94993.44;;;17.85;61.98
40596;BME280;26304;48.794;9.820;2023-10-31T04:14:14;94990.50;;;17.83;61.93
40596;BME280;26304;48.794;9.820;2023-10-31T04:16:38;94994.25;;;17.82;61.72
40596;BME280;26304;48.794;9.820;2023-10-31T04:19:02;94995.41;;;17.81;61.75
40596;BME280;26304;48.794;9.820;2023-10-31T04:21:25;94996.88;;;17.82;61.88
40596;BME280;26304;48.794;9.820;2023-10-31T04:23:47;94997.59;;;17.82;61.75
40596;BME280;26304;48.794;9.820;2023-10-31T04:26:09;94992.78;;;17.81;61.42
40596;BME280;26304;48.794;9.820;2023-10-31T04:28:32;95004.75;;;17.82;61.78
40596;BME280;26304;48.794;9.820;2023-10-31T04:30:54;95000.31;;;17.78;61.91
40596;BME280;26304;48.794;9.820;2023-10-31T04:33:16;95007.06;;;17.79;61.78
40596;BME280;26304;48.794;9.820;2023-10-31T04:35:40;95000.31;;;17.78;61.91
40596;BME280;26304;48.794;9.820;2023-10-31T04:38:03;95004.09;;;17.77;61.73
40596;BME280;26304;48.794;9.820;2023-10-31T04:40:25;94994.69;;;17.76;61.56
40596;BME280;26304;48.794;9.820;2023-10-31T04:42:47;94997.22;;;17.84;61.68
40596;BME280;26304;48.794;9.820;2023-10-31T04:45:10;94999.50;;;17.82;61.50
40596;BME280;26304;48.794;9.820;2023-10-31T04:47:32;95009.69;;;17.79;61.63
40596;BME280;26304;48.794;9.820;2023-10-31T04:49:55;95007.44;;;17.78;61.58
40596;BME280;26304;48.794;9.820;2023-10-31T04:52:18;95005.56;;;17.78;61.80
40596;BME280;26304;48.794;9.820;2023-10-31T04:54:43;95010.47;;;17.76;61.53
40596;BME280;26304;48.794;9.820;2023-10-31T04:57:06;95007.84;;;17.76;61.73
40596;BME280;26304;48.794;9.820;2023-10-31T04:59:28;95012.38;;;17.76;61.62
40596;BME280;26304;48.794;9.820;2023-10-31T05:01:51;95015.72;;;17.76;61.63
40596;BME280;26304;48.794;9.820;2023-10-31T05:04:13;95016.84;;;17.75;61.58
40596;BME280;26304;48.794;9.820;2023-10-31T05:06:35;95021.44;;;17.71;61.58
40596;BME280;26304;48.794;9.820;2023-10-31T05:08:59;95015.03;;;17.72;61.22
40596;BME280;26304;48.794;9.820;2023-10-31T05:11:21;95015.03;;;17.72;61.38
40596;BME280;26304;48.794;9.820;2023-10-31T05:13:44;95019.16;;;17.73;61.47
40596;BME280;26304;48.794;9.820;2023-10-31T05:16:07;95016.19;;;17.71;61.23
40596;BME280;26304;48.794;9.820;2023-10-31T05:18:29;95017.66;;;17.72;61.48
40596;BME280;26304;48.794;9.820;2023-10-31T05:20:52;95021.78;;;17.73;61.25
40596;BME280;26304;48.794;9.820;2023-10-31T05:23:14;95015.34;;;17.78;61.57
40596;BME280;26304;48.794;9.820;2023-10-31T05:25:38;95020.66;;;17.74;61.19
40596;BME280;26304;48.794;9.820;2023-10-31T05:28:01;95022.56;;;17.70;61.12
40596;BME280;26304;48.794;9.820;2023-10-31T05:30:23;95020.34;;;17.69;61.23
40596;BME280;26304;48.794;9.820;2023-10-31T05:32:46;95019.22;;;17.66;61.47
40596;BME280;26304;48.794;9.820;2023-10-31T05:35:09;95023.69;;;17.69;61.50
40596;BME280;26304;48.794;9.820;2023-10-31T05:37:31;95027.44;;;17.72;61.54
40596;BME280;26304;48.794;9.820;2023-10-31T05:39:53;95033.41;;;17.72;61.28
40596;BME280;26304;48.794;9.820;2023-10-31T05:42:17;95040.22;;;17.70;61.72
40596;BME280;26304;48.794;9.820;2023-10-31T05:44:41;95043.25;;;17.68;61.78
40596;BME280;26304;48.794;9.820;2023-10-31T05:47:04;95051.53;;;17.67;61.57
40596;BME280;26304;48.794;9.820;2023-10-31T05:49:26;95057.53;;;17.67;61.65
40596;BME280;26304;48.794;9.820;2023-10-31T05:51:50;95053.81;;;17.65;61.84
40596;BME280;26304;48.794;9.820;2023-10-31T05:54:12;95061.66;;;17.68;61.34
40596;BME280;26304;48.794;9.820;2023-10-31T05:56:34;95082.22;;;17.73;61.57
40596;BME280;26304;48.794;9.820;2023-10-31T05:58:58;95071.66;;;17.77;61.53
40596;BME280;26304;48.794;9.820;2023-10-31T06:01:21;95070.97;;;17.73;61.22
40596;BME280;26304;48.794;9.820;2023-10-31T06:03:43;95070.53;;;17.78;61.44
40596;BME280;26304;48.794;9.820;2023-10-31T06:06:06;95071.63;;;17.81;61.33
40596;BME280;26304;48.794;9.820;2023-10-31T06:08:29;95083.63;;;17.82;61.69
40596;BME280;26304;48.794;9.820;2023-10-31T06:10:51;95098.22;;;17.86;61.80
40596;BME280;26304;48.794;9.820;2023-10-31T06:13:14;95100.03;;;17.93;61.61
40596;BME280;26304;48.794;9.820;2023-10-31T06:15:37;95109.41;;;17.94;61.95
40596;BME280;26304;48.794;9.820;2023-10-31T06:18:00;95107.56;;;17.91;62.06
40596;BME280;26304;48.794;9.820;2023-10-31T06:20:22;95106.84;;;17.90;62.24
40596;BME280;26304;48.794;9.820;2023-10-31T06:22:44;95106.78;;;17.94;62.09
40596;BME280;26304;48.794;9.820;2023-10-31T06:25:07;95113.63;;;17.88;62.56
40596;BME280;26304;48.794;9.820;2023-10-31T06:27:30;95117.00;;;17.85;62.22
40596;BME280;26304;48.794;9.820;2023-10-31T06:29:52;95126.88;;;17.77;62.86
40596;BME280;26304;48.794;9.820;2023-10-31T06:32:17;95131.13;;;17.67;62.33
40596;BME280;26304;48.794;9.820;2023-10-31T06:34:40;95129.72;;;17.59;62.11
40596;BME280;26304;48.794;9.820;2023-10-31T06:37:02;95139.88;;;17.57;62.21
40596;BME280;26304;48.794;9.820;2023-10-31T06:39:25;95141.75;;;17.56;61.99
40596;BME280;26304;48.794;9.820;2023-10-31T06:41:47;95145.53;;;17.52;62.46
40596;BME280;26304;48.794;9.820;2023-10-31T06:44:10;95142.56;;;17.50;62.05
40596;BME280;26304;48.794;9.820;2023-10-31T06:46:32;95139.94;;;17.50;61.73
40596;BME280;26304;48.794;9.820;2023-10-31T06:48:56;95139.59;;;17.48;61.60
40596;BME280;26304;48.794;9.820;2023-10-31T06:51:19;95143.41;;;17.43;62.00
40596;BME280;26304;48.794;9.820;2023-10-31T06:53:41;95147.13;;;17.46;61.45
40596;BME280;26304;48.794;9.820;2023-10-31T06:56:04;95137.25;;;17.57;61.08
40596;BME280;26304;48.794;9.820;2023-10-31T06:58:26;95150.78;;;17.55;60.59
40596;BME280;26304;48.794;9.820;2023-10-31T07:00:49;95150.78;;;17.55;60.84
40596;BME280;26304;48.794;9.820;2023-10-31T07:03:11;95157.56;;;17.53;61.16
40596;BME280;26304;48.794;9.820;2023-10-31T07:05:38;95160.84;;;17.60;60.80
40596;BME280;26304;48.794;9.820;2023-10-31T07:08:01;95165.78;;;17.55;60.56
40596;BME280;26304;48.794;9.820;2023-10-31T07:10:24;95171.13;;;17.48;60.04
40596;BME280;26304;48.794;9.820;2023-10-31T07:12:46;95170.50;;;17.36;59.58
40596;BME280;26304;48.794;9.820;2023-10-31T07:15:09;95171.28;;;17.33;59.17
40596;BME280;26304;48.794;9.820;2023-10-31T07:17:31;95174.69;;;17.30;59.17
40596;BME280;26304;48.794;9.820;2023-10-31T07:19:54;95183.34;;;17.27;59.10
40596;BME280;26304;48.794;9.820;2023-10-31T07:22:18;95184.84;;;17.24;58.75
40596;BME280;26304;48.794;9.820;2023-10-31T07:24:40;95187.84;;;17.27;59.05
40596;BME280;26304;48.794;9.820;2023-10-31T07:27:04;95178.13;;;17.23;58.72
40596;BME280;26304;48.794;9.820;2023-10-31T07:29:26;95183.38;;;17.20;58.74
40596;BME280;26304;48.794;9.820;2023-10-31T07:31:48;95193.91;;;17.20;59.06
40596;BME280;26304;48.794;9.820;2023-10-31T07:34:11;95189.78;;;17.19;59.09
40596;BME280;26304;48.794;9.820;2023-10-31T07:36:34;95184.97;;;17.14;58.69
40596;BME280;26304;48.794;9.820;2023-10-31T07:38:58;95188.69;;;17.16;59.02
40596;BME280;26304;48.794;9.820;2023-10-31T07:41:20;95188.72;;;17.13;58.84
40596;BME280;26304;48.794;9.820;2023-10-31T07:43:43;95189.84;;;17.12;58.62
40596;BME280;26304;48.794;9.820;2023-10-31T07:46:05;95192.47;;;17.12;58.61
40596;BME280;26304;48.794;9.820;2023-10-31T07:48:27;95200.00;;;17.10;58.14
40596;BME280;26304;48.794;9.820;2023-10-31T07:50:50;95193.63;;;17.11;58.02
40596;BME280;26304;48.794;9.820;2023-10-31T07:53:12;95198.50;;;17.09;58.54
40596;BME280;26304;48.794;9.820;2023-10-31T07:55:36;95206.78;;;17.03;57.90
40596;BME280;26304;48.794;9.820;2023-10-31T07:57:58;95200.41;;;17.04;58.32
40596;BME280;26304;48.794;9.820;2023-10-31T08:00:21;95210.88;;;17.08;58.24
40596;BME280;26304;48.794;9.820;2023-10-31T08:02:43;95213.56;;;17.04;58.12
40596;BME280;26304;48.794;9.820;2023-10-31T08:05:07;95219.56;;;17.01;58.28
40596;BME280;26304;48.794;9.820;2023-10-31T08:07:30;95219.56;;;17.01;57.93
40596;BME280;26304;48.794;9.820;2023-10-31T08:09:53;95227.09;;;16.99;57.73
40596;BME280;26304;48.794;9.820;2023-10-31T08:12:17;95229.38;;;16.94;58.03
40596;BME280;26304;48.794;9.820;2023-10-31T08:14:39;95226.72;;;16.97;57.77
40596;BME280;26304;48.794;9.820;2023-10-31T08:17:04;95232.34;;;16.99;58.15
40596;BME280;26304;48.794;9.820;2023-10-31T08:19:27;95233.78;;;17.08;57.85
40596;BME280;26304;48.794;9.820;2023-10-31T08:21:49;95236.72;;;17.13;58.18
40596;BME280;26304;48.794;9.820;2023-10-31T08:24:11;95246.88;;;17.11;58.15
40596;BME280;26304;48.794;9.820;2023-10-31T08:26:34;95238.31;;;17.03;58.03
40596;BME280;26304;48.794;9.820;2023-10-31T08:28:58;95245.81;;;17.01;58.62
40596;BME280;26304;48.794;9.820;2023-10-31T08:31:20;95246.56;;;17.02;58.52
40596;BME280;26304;48.794;9.820;2023-10-31T08:33:43;95248.44;;;17.01;59.16
40596;BME280;26304;48.794;9.820;2023-10-31T08:36:06;95244.72;;;17.02;58.46
40596;BME280;26304;48.794;9.820;2023-10-31T08:38:28;95250.28;;;17.08;58.98
40596;BME280;26304;48.794;9.820;2023-10-31T08:40:51;95243.53;;;17.07;58.93
40596;BME280;26304;48.794;9.820;2023-10-31T08:43:13;95247.31;;;17.02;58.74
40596;BME280;26304;48.794;9.820;2023-10-31T08:45:37;95251.78;;;17.05;59.04
40596;BME280;26304;48.794;9.820;2023-10-31T08:48:00;95245.06;;;17.04;59.03
40596;BME280;26304;48.794;9.820;2023-10-31T08:50:22;95251.78;;;17.05;58.97
40596;BME280;26304;48.794;9.820;2023-10-31T08:52:45;95253.66;;;17.05;58.96
40596;BME280;26304;48.794;9.820;2023-10-31T08:55:07;95245.00;;;17.12;58.73
40596;BME280;26304;48.794;9.820;2023-10-31T08:57:30;95248.09;;;16.99;58.98
40596;BME280;26304;48.794;9.820;2023-10-31T08:59:52;95248.53;;;16.91;59.43
40596;BME280;26304;48.794;9.820;2023-10-31T09:02:16;95247.31;;;17.02;59.13
40596;BME280;26304;48.794;9.820;2023-10-31T09:04:39;95247.31;;;17.02;58.99
40596;BME280;26304;48.794;9.820;2023-10-31T09:07:01;95249.53;;;17.04;59.03
40596;BME280;26304;48.794;9.820;2023-10-31T09:09:24;95258.19;;;17.04;59.25
40596;BME280;26304;48.794;9.820;2023-10-31T09:11:46;95265.28;;;17.08;59.36
40596;BME280;26304;48.794;9.820;2023-10-31T09:14:08;95260.47;;;17.02;60.00
40596;BME280;26304;48.794;9.820;2023-10-31T09:16:31;95260.03;;;17.08;59.44
40596;BME280;26304;48.794;9.820;2023-10-31T09:18:54;95259.66;;;17.09;59.66
40596;BME280;26304;48.794;9.820;2023-10-31T09:21:17;95258.50;;;17.10;59.59
40596;BME280;26304;48.794;9.820;2023-10-31T09:23:39;95262.25;;;17.13;59.22
40596;BME280;26304;48.794;9.820;2023-10-31T09:26:02;95257.75;;;17.10;59.25
40596;BME280;26304;48.794;9.820;2023-10-31T09:28:24;95257.72;;;17.13;59.14
40596;BME280;26304;48.794;9.820;2023-10-31T09:30:47;95252.50;;;17.10;59.39
40596;BME280;26304;48.794;9.820;2023-10-31T09:33:11;95245.75;;;17.09;60.16
40596;BME280;26304;48.794;9.820;2023-10-31T09:35:35;95242.00;;;17.10;59.54
40596;BME280;26304;48.794;9.820;2023-10-31T09:37:57;95241.28;;;17.05;58.64
40596;BME280;26304;48.794;9.820;2023-10-31T09:40:20;95248.38;;;17.09;59.04
40596;BME280;26304;48.794;9.820;2023-10-31T09:42:44;95254.00;;;17.11;59.09
40596;BME280;26304;48.794;9.820;2023-10-31T09:45:07;95248.38;;;17.09;59.01
40596;BME280;26304;48.794;9.820;2023-10-31T09:47:30;95258.88;;;17.09;58.53
40596;BME280;26304;48.794;9.820;2023-10-31T09:49:54;95256.66;;;17.11;58.74
40596;BME280;26304;48.794;9.820;2023-10-31T09:52:18;95264.56;;;17.03;58.49
40596;BME280;26304;48.794;9.820;2023-10-31T09:54:41;95266.81;;;17.05;58.30
40596;BME280;26304;48.794;9.820;2023-10-31T09:57:04;95273.56;;;17.06;58.29
40596;BME280;26304;48.794;9.820;2023-10-31T09:59:26;95280.28;;;17.07;58.22
40596;BME280;26304;48.794;9.820;2023-10-31T10:01:49;95272.03;;;17.05;59.28
40596;BME280;26304;48.794;9.820;2023-10-31T10:04:11;95276.19;;;17.06;59.53
40596;BME280;26304;48.794;9.820;2023-10-31T10:06:34;95273.16;;;17.04;59.08
40596;BME280;26304;48.794;9.820;2023-10-31T10:08:57;95266.09;;;17.01;58.48
40596;BME280;26304;48.794;9.820;2023-10-31T10:11:20;95274.31;;;17.03;58.71
40596;BME280;26304;48.794;9.820;2023-10-31T10:13:44;95279.19;;;17.04;59.15
40596;BME280;26304;48.794;9.820;2023-10-31T10:16:07;95281.81;;;17.04;59.30
40596;BME280;26304;48.794;9.820;2023-10-31T10:18:31;95275.78;;;17.08;58.78
40596;BME280;26304;48.794;9.820;2023-10-31T10:20:57;95273.94;;;17.04;59.23
40596;BME280;26304;48.794;9.820;2023-10-31T10:23:20;95279.94;;;17.05;59.26
40596;BME280;26304;48.794;9.820;2023-10-31T10:25:44;95273.59;;;17.02;58.84
40596;BME280;26304;48.794;9.820;2023-10-31T10:28:06;95278.41;;;17.04;58.82
40596;BME280;26304;48.794;9.820;2023-10-31T10:30:35;95296.81;;;17.04;58.91
40596;BME280;26304;48.794;9.820;2023-10-31T10:32:57;95295.69;;;17.05;59.47
40596;BME280;26304;48.794;9.820;2023-10-31T10:35:19;95302.06;;;17.04;58.94
40596;BME280;26304;48.794;9.820;2023-10-31T10:37:43;95305.81;;;17.03;58.98
40596;BME280;26304;48.794;9.820;2023-10-31T10:40:07;95308.84;;;17.01;58.26
40596;BME280;26304;48.794;9.820;2023-10-31T10:42:45;95308.84;;;17.01;58.48
40596;BME280;26304;48.794;9.820;2023-10-31T10:45:09;95320.06;;;17.02;58.76
40596;BME280;26304;48.794;9.820;2023-10-31T10:47:33;95319.38;;;16.98;58.60
40596;BME280;26304;48.794;9.820;2023-10-31T10:49:59;95317.13;;;16.96;58.49
40596;BME280;26304;48.794;9.820;2023-10-31T10:52:23;95320.84;;;16.99;58.67
40596;BME280;26304;48.794;9.820;2023-10-31T10:54:52;95316.34;;;16.99;58.60
40596;BME280;26304;48.794;9.820;2023-10-31T10:57:23;95315.97;;;17.01;57.84
40596;BME280;26304;48.794;9.820;2023-10-31T10:59:51;95319.75;;;16.96;57.38
40596;BME280;26304;48.794;9.820;2023-10-31T11:02:18;95319.38;;;16.94;57.83
40596;BME280;26304;48.794;9.820;2023-10-31T11:04:42;95313.00;;;16.95;57.77
40596;BME280;26304;48.794;9.820;2023-10-31T11:07:05;95324.25;;;16.96;57.80
40596;BME280;26304;48.794;9.820;2023-10-31T11:09:29;95326.13;;;16.95;57.72
40596;BME280;26304;48.794;9.820;2023-10-31T11:11:52;95320.53;;;16.93;58.15
40596;BME280;26304;48.794;9.820;2023-10-31T11:14:16;95321.63;;;16.92;57.91
40596;BME280;26304;48.794;9.820;2023-10-31T11:16:44;95323.91;;;16.90;57.76
40596;BME280;26304;48.794;9.820;2023-10-31T11:19:07;95331.03;;;16.93;58.40
40596;BME280;26304;48.794;9.820;2023-10-31T11:21:31;95336.28;;;16.93;58.13
40596;BME280;26304;48.794;9.820;2023-10-31T11:23:57;95341.53;;;16.93;57.85
40596;BME280;26304;48.794;9.820;2023-10-31T11:26:20;95338.13;;;16.93;58.43
40596;BME280;26304;48.794;9.820;2023-10-31T11:28:42;95354.25;;;16.91;58.51
40596;BME280;26304;48.794;9.820;2023-10-31T11:31:05;95354.25;;;16.91;59.11
40596;BME280;26304;48.794;9.820;2023-10-31T11:33:30;95347.53;;;16.90;59.32
40596;BME280;26304;48.794;9.820;2023-10-31T11:36:00;95352.00;;;16.97;58.76
40596;BME280;26304;48.794;9.820;2023-10-31T11:38:31;95346.00;;;16.93;58.43
40596;BME280;26304;48.794;9.820;2023-10-31T11:40:59;95344.16;;;16.93;58.63
40596;BME280;26304;48.794;9.820;2023-10-31T11:43:22;95353.50;;;16.94;58.55
40596;BME280;26304;48.794;9.820;2023-10-31T11:45:45;95343.38;;;16.93;58.95
40596;BME280;26304;48.794;9.820;2023-10-31T11:48:08;95353.13;;;16.92;59.08
40596;BME280;26304;48.794;9.820;2023-10-31T11:50:33;95352.41;;;16.88;59.17
40596;BME280;26304;48.794;9.820;2023-10-31T11:53:03;95358.38;;;16.92;58.86
40596;BME280;26304;48.794;9.820;2023-10-31T11:55:27;95358.38;;;16.92;58.86
40596;BME280;26304;48.794;9.820;2023-10-31T11:57:49;95362.13;;;16.95;58.71
40596;BME280;26304;48.794;9.820;2023-10-31T12:00:20;95365.50;;;16.95;59.07
40596;BME280;26304;48.794;9.820;2023-10-31T12:02:56;95356.13;;;16.94;58.55
40596;BME280;26304;48.794;9.820;2023-10-31T12:05:19;95355.41;;;16.90;58.38
40596;BME280;26304;48.794;9.820;2023-10-31T12:07:43;95362.13;;;16.91;58.65
40596;BME280;26304;48.794;9.820;2023-10-31T12:10:07;95362.53;;;16.89;58.72
40596;BME280;26304;48.794;9.820;2023-10-31T12:12:30;95370.78;;;16.92;58.74
40596;BME280;26304;48.794;9.820;2023-10-31T12:15:04;95365.50;;;16.95;58.47
40596;BME280;26304;48.794;9.820;2023-10-31T12:17:27;95370.41;;;16.89;58.09
40596;BME280;26304;48.794;9.820;2023-10-31T12:19:54;95363.31;;;16.86;57.82
40596;BME280;26304;48.794;9.820;2023-10-31T12:22:17;95369.69;;;16.82;58.29
40596;BME280;26304;48.794;9.820;2023-10-31T12:24:42;95362.91;;;16.81;58.42
40596;BME280;26304;48.794;9.820;2023-10-31T12:27:04;95374.94;;;16.85;58.29
40596;BME280;26304;48.794;9.820;2023-10-31T12:29:27;95371.91;;;16.80;58.32
40596;BME280;26304;48.794;9.820;2023-10-31T12:31:50;95374.91;;;16.78;58.51
40596;BME280;26304;48.794;9.820;2023-10-31T12:34:14;95376.81;;;16.78;58.64
40596;BME280;26304;48.794;9.820;2023-10-31T12:36:36;95375.31;;;16.77;58.46
40596;BME280;26304;48.794;9.820;2023-10-31T12:38:59;95372.31;;;16.82;58.59